This is the latest recevied weather packets stored in our database for station/object IN3XSV-15. If no packets are shown the sender has not sent any weather packets the latest 10 day(s).
| Time | Temp. | Humidity | Pressure | Rain* | Wind** | Luminosity | Snow |
|---|---|---|---|---|---|---|---|
| 1777874101 | 12.78° C | 54% | 859.6 hPa | 0 mm | - | - | - |
| 1777873801 | 12.78° C | 53% | 859.6 hPa | 0 mm | - | - | - |
| 1777873501 | 13.89° C | 53% | 859.5 hPa | 0 mm | - | - | - |
| 1777873201 | 13.89° C | 51% | 859.4 hPa | 0 mm | - | - | - |
| 1777872901 | 15.56° C | 50% | 859.6 hPa | 0 mm | - | - | - |
| 1777872601 | 17.22° C | 49% | 859.6 hPa | 0 mm | - | - | - |
| 1777872301 | 18.33° C | 49% | 859.6 hPa | 0 mm | - | - | - |
| 1777872001 | 17.78° C | 51% | 859.4 hPa | 0 mm | - | - | - |
| 1777871701 | 15.56° C | 54% | 859.4 hPa | 0 mm | - | - | - |
| 1777871401 | 15° C | 54% | 859.3 hPa | 0 mm | - | - | - |
| 1777871101 | 14.44° C | 57% | 859.4 hPa | 0 mm | - | - | - |
| 1777870801 | 12.22° C | 61% | 859.4 hPa | 0 mm | - | - | - |
| 1777870501 | 10° C | 64% | 859.3 hPa | 0 mm | - | - | - |
| 1777870201 | 8.33° C | 65% | 859.3 hPa | 0 mm | - | - | - |
| 1777869901 | 8.33° C | 65% | 859.2 hPa | 0 mm | - | - | - |
| 1777869601 | 7.78° C | 66% | 859.2 hPa | 0 mm | - | - | - |
| 1777869301 | 6.67° C | 67% | 859.3 hPa | 0 mm | - | - | - |
| 1777869001 | 6.11° C | 68% | 859.3 hPa | 0 mm | - | - | - |
| 1777868701 | 6.11° C | 68% | 859.3 hPa | 0 mm | - | - | - |
| 1777868401 | 5.56° C | 67% | 859.3 hPa | 0 mm | - | - | - |
| 1777868101 | 5.56° C | 67% | 859.3 hPa | 0 mm | - | - | - |
| 1777867801 | 5.56° C | 67% | 859.2 hPa | 0 mm | - | - | - |
| 1777867501 | 5.56° C | 67% | 859.4 hPa | 0 mm | - | - | - |
| 1777867201 | 5.56° C | 66% | 859.3 hPa | 0 mm | - | - | - |
| 1777866901 | 5.56° C | 66% | 859.3 hPa | 0 mm | - | - | - |
* Rain latest hour (hover to see other rain measurements)
** Current wind speed in m/s (hover to see current wind gust speed)